createdAt,value
2018-04-11T00:06:59.099Z,0
2018-04-11T00:17:08.704Z,0
2018-04-11T00:27:08.167Z,0
2018-04-11T00:36:59.041Z,0
2018-04-11T00:46:59.097Z,0
2018-04-11T00:56:59.123Z,0
2018-04-11T01:06:59.195Z,0
2018-04-11T01:16:59.109Z,0
2018-04-11T01:26:59.107Z,0
2018-04-11T01:36:59.192Z,0
2018-04-11T01:46:59.085Z,0
2018-04-11T01:56:59.095Z,0
2018-04-11T02:06:59.134Z,0
2018-04-11T02:16:59.145Z,0
2018-04-11T02:26:59.133Z,0
2018-04-11T02:36:59.144Z,0
2018-04-11T02:46:59.073Z,0
2018-04-11T02:56:59.155Z,0
2018-04-11T03:06:59.092Z,0
2018-04-11T03:16:59.154Z,0
2018-04-11T03:26:59.100Z,0
2018-04-11T03:36:59.146Z,0
2018-04-11T03:46:59.156Z,0
2018-04-11T03:56:59.205Z,0
2018-04-11T04:06:59.144Z,0
2018-04-11T04:16:59.251Z,8
2018-04-11T04:26:59.200Z,40
2018-04-11T04:36:59.169Z,132
2018-04-11T04:46:59.180Z,336
2018-04-11T04:56:59.141Z,652
2018-04-11T05:06:59.286Z,1140
2018-04-11T05:16:59.237Z,1668
2018-04-11T05:26:59.269Z,2564
2018-04-11T05:36:59.235Z,4024
2018-04-11T05:46:59.268Z,4692
2018-04-11T05:56:59.226Z,5432
2018-04-11T06:06:59.335Z,6380
2018-04-11T06:16:59.254Z,6816
2018-04-11T06:26:59.262Z,6992
2018-04-11T06:36:59.334Z,6948
2018-04-11T06:46:59.271Z,7624
2018-04-11T06:56:59.302Z,8012
2018-04-11T07:06:59.398Z,7296
2018-04-11T07:16:59.351Z,9256
2018-04-11T07:26:59.312Z,9376
2018-04-11T07:36:59.381Z,9348
2018-04-11T07:46:59.449Z,9812
2018-04-11T07:56:59.426Z,11224
2018-04-11T08:06:59.408Z,29440
2018-04-11T08:16:59.696Z,43808
2018-04-11T08:26:59.401Z,44768
2018-04-11T08:36:59.350Z,9304
2018-04-11T08:46:59.452Z,8724
2018-04-11T08:56:59.331Z,9556
2018-04-11T09:06:59.313Z,9204
2018-04-11T09:16:59.367Z,9016
2018-04-11T09:26:59.357Z,11580
2018-04-11T09:36:59.398Z,14432
2018-04-11T09:46:59.395Z,10868
2018-04-11T09:56:59.386Z,8316
2018-04-11T10:06:59.622Z,8928
2018-04-11T10:16:59.374Z,9620
2018-04-11T10:26:59.314Z,9396
2018-04-11T10:36:59.380Z,8752
2018-04-11T10:46:59.602Z,9196
2018-04-11T10:56:59.507Z,15920
2018-04-11T11:06:59.511Z,16064
2018-04-11T11:16:59.370Z,7432
2018-04-11T11:26:59.501Z,9828
2018-04-11T11:36:59.375Z,15332
2018-04-11T11:46:59.459Z,12756
2018-04-11T11:56:59.532Z,7460
2018-04-11T12:06:59.399Z,11604
2018-04-11T12:16:59.359Z,12812
2018-04-11T12:26:59.406Z,7900
2018-04-11T12:36:59.333Z,6988
2018-04-11T12:46:59.364Z,15732
2018-04-11T12:56:59.352Z,14088
2018-04-11T13:06:59.366Z,11480
2018-04-11T13:16:59.362Z,11648
2018-04-11T13:26:59.433Z,12640
2018-04-11T13:36:59.344Z,14948
2018-04-11T13:46:59.356Z,14068
2018-04-11T13:56:59.359Z,12816
2018-04-11T14:06:59.355Z,12784
2018-04-11T14:16:59.368Z,10132
2018-04-11T14:26:59.420Z,6284
2018-04-11T14:36:59.377Z,7016
2018-04-11T14:46:59.381Z,9468
2018-04-11T14:56:59.391Z,9688
2018-04-11T15:06:59.444Z,1828
2018-04-11T15:16:59.426Z,4640
2018-04-11T15:27:08.454Z,5620
2018-04-11T15:36:59.688Z,5272
2018-04-11T15:46:59.517Z,5044
2018-04-11T15:56:59.653Z,384
2018-04-11T16:06:59.615Z,3740
2018-04-11T16:16:59.450Z,4484
2018-04-11T16:26:59.442Z,1244
2018-04-11T16:36:59.645Z,1152
2018-04-11T16:46:59.725Z,2232
2018-04-11T16:56:59.429Z,2408
2018-04-11T17:06:59.413Z,2052
2018-04-11T17:16:59.581Z,2208
2018-04-11T17:26:59.608Z,1704
2018-04-11T17:36:59.511Z,1508
2018-04-11T17:46:59.646Z,1020
2018-04-11T17:56:59.526Z,764
2018-04-11T18:06:59.572Z,460
2018-04-11T18:16:59.680Z,228
2018-04-11T18:26:59.553Z,84
2018-04-11T18:36:59.493Z,20
2018-04-11T18:46:59.696Z,4
2018-04-11T18:56:59.820Z,0
2018-04-11T19:07:00.075Z,0
2018-04-11T19:16:59.397Z,0
2018-04-11T19:27:00.164Z,0
2018-04-11T19:36:59.487Z,0
2018-04-11T19:46:59.522Z,0
2018-04-11T19:56:59.486Z,0
2018-04-11T20:06:59.455Z,0
2018-04-11T20:16:59.373Z,0
2018-04-11T20:26:59.500Z,0
2018-04-11T20:36:59.434Z,0
2018-04-11T20:46:59.459Z,0
2018-04-11T20:56:59.633Z,0
2018-04-11T21:06:59.621Z,0
2018-04-11T21:56:59.804Z,0
2018-04-11T22:17:00.281Z,0
2018-04-11T22:26:59.725Z,0
2018-04-11T22:36:59.457Z,0
2018-04-11T22:46:59.338Z,0
2018-04-11T22:56:59.448Z,0
2018-04-11T23:06:59.442Z,0
2018-04-11T23:16:59.363Z,0
2018-04-11T23:26:59.429Z,0
2018-04-11T23:36:59.932Z,0
2018-04-11T23:46:59.496Z,0
2018-04-11T23:56:59.531Z,0
